Terminal Aerodrome Forecast
Issued by NWS

Home | Current Version | Previous Version | Text Only | Print | Product List | Glossary On
Versions: 1 2 3 4 5 6 7 8 9 10 11 12 13
000
FTUS42 TJSJ 211131
TAFIST
TAF
TIST 211131Z 2112/2212 08006KT P6SM VCSH FEW025 FEW050
     FM211400 13012G18KT P6SM FEW035
     FM212300 09008KT P6SM FEW030
      AMD NOT SKED=

USA.gov is the U.S. government's official web portal to all federal, state and local government web resources and services.